• Join FlightAware (Why Join?)
  • Login
  • US Flag 
04:09AM EST


 

Airport Tracker/Info


-or-


 

Live Flight TrackerFlight Track Log ✈ SWA771 ✈ 04-May-2013 ✈ KTPA - KDEN

Flight Track Log - Related Links

Times and Time Zones

All times are in EDT time to prevent confusion due to time zone crossing. See the SWA771 flight status page for this flight to view local times or setup timezone preferences in your user account.

Time Position Orientation Groundspeed Altitude Reporting Facility
EDT Latitude Longitude Course Direction KTS MPH feet Rate Location/Type
04:37PM 28.0167 -82.5333 360° North 176 203 2,000  Level Tampa TRACON
04:38PM 28.0833 -82.5333 360° North 238 274 4,000 2,280 Climbing Tampa TRACON
04:39PM 28.1392 -82.5561 340° North 265 305 6,500 2,640 Climbing Jacksonville Center
04:40PM 28.2100 -82.5958 334° Northwest 281 323 9,200 2,520 Climbing Jacksonville Center
04:41PM 28.2811 -82.6381 332° Northwest 286 329 11,600 2,220 Climbing Jacksonville Center
04:42PM 28.3667 -82.6897 332° Northwest 310 357 13,700 2,400 Climbing Jacksonville Center
04:43PM 28.4567 -82.7439 332° Northwest 342 394 16,500 2,700 Climbing Jacksonville Center
04:44PM 28.5506 -82.7981 333° Northwest 361 415 19,200 2,460 Climbing Jacksonville Center
04:45PM 28.6444 -82.8619 329° Northwest 381 438 21,500 2,220 Climbing Jacksonville Center
04:46PM 28.7425 -82.9281 329° Northwest 394 453 23,700 2,100 Climbing Jacksonville Center
04:47PM 28.8447 -82.9992 329° Northwest 413 475 25,800 1,980 Climbing Jacksonville Center
04:48PM 28.9450 -83.0681 329° Northwest 418 481 27,700 1,800 Climbing Jacksonville Center
04:49PM 29.0492 -83.1419 328° Northwest 429 494 29,500 1,920 Climbing Jacksonville Center
04:50PM 29.1472 -83.2089 329° Northwest 429 494 31,600 1,920 Climbing Jacksonville Center
04:51PM 29.2492 -83.2828 328° Northwest 429 494 33,400 1,740 Climbing Jacksonville Center
04:52PM 29.3472 -83.3500 329° Northwest 424 488 35,100 1,260 Climbing Jacksonville Center
04:53PM 29.4553 -83.4244 329° Northwest 419 482 36,000 420 Climbing Jacksonville Center
04:54PM 29.5531 -83.4967 327° Northwest 419 482 36,000  Level Jacksonville Center
04:55PM 29.6508 -83.5642 329° Northwest 414 476 36,000  Level Jacksonville Center
04:56PM 29.7486 -83.6342 328° Northwest 414 476 36,000  Level Jacksonville Center
04:57PM 29.8464 -83.7019 329° Northwest 414 476 36,100 660 Climbing Jacksonville Center
04:58PM 29.9189 -83.7936 312° West 389 448 37,400 900 Climbing Jacksonville Center
04:59PM 29.9786 -83.8950 304° West 384 442 38,000 300 Climbing Jacksonville Center
05:00PM 30.0383 -83.9986 304° West 384 442 38,000  Level Jacksonville Center
05:01PM 30.1000 -84.1003 305° West 389 448 38,000  Level Jacksonville Center
05:02PM 30.1553 -84.2019 302° West 389 448 38,000  Level Jacksonville Center
05:03PM 30.2189 -84.3061 305° West 389 448 38,000  Level Jacksonville Center
05:04PM 30.2806 -84.4103 304° West 395 455 38,000  Level Jacksonville Center
05:05PM 30.3397 -84.5125 304° West 395 455 38,000  Level Jacksonville Center
05:06PM 30.3989 -84.6144 304° West 395 455 38,000  Level Jacksonville Center
05:07PM 30.4581 -84.7169 304° West 395 455 38,000  Level Jacksonville Center
05:08PM 30.5169 -84.8217 303° West 395 455 38,000  Level Jacksonville Center
05:09PM 30.5781 -84.9242 305° West 395 455 38,000  Level Jacksonville Center
05:10PM 30.6369 -85.0292 303° West 395 455 38,000  Level Jacksonville Center
05:11PM 30.6978 -85.1319 305° West 395 455 38,000  Level Jacksonville Center
05:12PM 30.7564 -85.2350 304° West 395 455 38,000  Level Jacksonville Center
05:13PM 30.8172 -85.3431 303° West 395 455 38,000  Level Jacksonville Center
05:14PM 30.8756 -85.4486 303° West 390 449 38,000  Level Jacksonville Center
05:15PM 30.9361 -85.5519 304° West 390 449 38,000  Level Jacksonville Center
05:16PM 30.9964 -85.6578 304° West 390 449 38,000  Level Jacksonville Center
05:17PM 31.0547 -85.7636 303° West 390 449 38,000  Level Jacksonville Center
05:18PM 31.1106 -85.8747 300° West 395 455 38,000  Level Jacksonville Center
05:19PM 31.1708 -85.9761 305° West 395 455 38,000  Level Jacksonville Center
05:21PM 31.3058 -86.2139 304° West 390 449 38,000  Level Atlanta Center
05:22PM 31.3625 -86.3175 303° West 390 449 38,000  Level Atlanta Center
05:23PM 31.4211 -86.4211 304° West 385 443 38,000  Level Atlanta Center
05:24PM 31.4775 -86.5225 303° West 385 443 38,000  Level Atlanta Center
05:25PM 31.5339 -86.6264 303° West 385 443 38,000  Level Atlanta Center
05:26PM 31.5942 -86.7328 304° West 385 443 38,000  Level Atlanta Center
05:27PM 31.6542 -86.8469 302° West 385 443 38,000  Level Atlanta Center
05:28PM 31.7103 -86.9536 302° West 385 443 38,000  Level Atlanta Center
05:29PM 31.7703 -87.0581 304° West 390 449 38,000  Level Atlanta Center
05:30PM 31.8281 -87.1675 302° West 390 449 38,000  Level Atlanta Center
05:31PM 31.8839 -87.2722 302° West 395 455 38,000  Level Atlanta Center
05:32PM 31.9417 -87.3672 306° West 400 460 38,000  Level Atlanta Center
05:33PM 31.9992 -87.4869 300° West 394 453 38,000  Level Atlanta Center
05:34PM 32.0586 -87.5922 304° West 394 453 38,000  Level Atlanta Center
05:35PM 32.1203 -87.7025 303° West 394 453 38,000  Level Atlanta Center
05:36PM 32.1753 -87.8103 301° West 394 453 38,000  Level Atlanta Center
05:38PM 32.2564 -87.9647 302° West 386 444 38,000  Level Memphis Center
05:39PM 32.3147 -88.0714 303° West 386 444 38,000  Level Memphis Center
05:40PM 32.3689 -88.1806 300° West 386 444 38,000  Level Memphis Center
05:41PM 32.4314 -88.2972 302° West 386 444 38,000  Level Memphis Center
05:42PM 32.4872 -88.3969 304° West 379 436 38,000  Level Memphis Center
05:43PM 32.5411 -88.5042 301° West 379 436 38,000  Level Memphis Center
05:44PM 32.5992 -88.6089 303° West 379 436 38,000  Level Memphis Center
05:45PM 32.6547 -88.7164 302° West 384 442 38,000  Level Memphis Center
05:46PM 32.7125 -88.8289 301° West 384 442 38,000  Level Memphis Center
05:47PM 32.7681 -88.9367 302° West 389 448 38,000  Level Memphis Center
05:48PM 32.8256 -89.0444 302° West 389 448 38,000  Level Memphis Center
05:49PM 32.8811 -89.1575 300° West 389 448 38,000  Level Memphis Center
05:50PM 32.9364 -89.2681 301° West 389 448 38,000  Level Memphis Center
05:51PM 32.9894 -89.3692 302° West 394 453 38,000  Level Memphis Center
05:52PM 33.0467 -89.4775 302° West 394 453 38,000  Level Memphis Center
05:53PM 33.1017 -89.5886 301° West 394 453 38,000  Level Memphis Center
05:54PM 33.1544 -89.6972 300° West 394 453 38,000  Level Memphis Center
05:55PM 33.2114 -89.8061 302° West 389 448 38,000  Level Memphis Center
05:56PM 33.2661 -89.9175 300° West 389 448 38,000  Level Memphis Center
05:57PM 33.3206 -90.0267 301° West 389 448 38,000  Level Memphis Center
05:58PM 33.3836 -90.1508 301° West 389 448 38,000  Level Memphis Center
05:59PM 33.4381 -90.2600 301° West 394 453 38,000  Level Memphis Center
06:00PM 33.4944 -90.3747 301° West 394 453 38,000  Level Memphis Center
06:01PM 33.5506 -90.4892 300° West 400 460 38,000  Level Memphis Center
06:02PM 33.6089 -90.6042 301° West 400 460 38,000  Level Memphis Center
06:03PM 33.6650 -90.7192 300° West 400 460 38,000  Level Memphis Center
06:04PM 33.7231 -90.8417 300° West 400 460 38,000  Level Memphis Center
06:05PM 33.7789 -90.9544 301° West 400 460 38,000  Level Memphis Center
06:06PM 33.8286 -91.0572 300° West 400 460 38,000  Level Memphis Center
06:07PM 33.8944 -91.1906 301° West 400 460 38,000  Level Memphis Center
06:08PM 33.9500 -91.3061 300° West 400 460 38,000  Level Memphis Center
06:09PM 34.0094 -91.4272 301° West 405 466 38,000  Level Memphis Center
06:10PM 34.0647 -91.5456 299° West 413 475 38,000  Level Memphis Center
06:11PM 34.1261 -91.6694 301° West 423 487 38,000  Level Memphis Center
06:12PM 34.1814 -91.7783 302° West 425 489 38,000  Level Memphis Center
06:13PM 34.2364 -91.9022 298° West 420 483 38,000  Level Memphis Center
06:14PM 34.2994 -92.0217 303° West 420 483 38,000  Level Memphis Center
06:15PM 34.3542 -92.1458 298° West 420 483 38,000  Level Memphis Center
06:16PM 34.4108 -92.2656 300° West 420 483 38,000  Level Memphis Center
06:17PM 34.4672 -92.3850 300° West 420 483 38,000  Level Memphis Center
06:18PM 34.5217 -92.5022 299° West 420 483 38,000  Level Memphis Center
06:19PM 34.5800 -92.6247 300° West 415 478 38,000  Level Memphis Center
06:20PM 34.6383 -92.7475 300° West 420 483 38,000  Level Memphis Center
06:21PM 34.6942 -92.8703 299° West 420 483 38,000  Level Memphis Center
06:22PM 34.7500 -92.9933 299° West 420 483 38,000  Level Memphis Center
06:23PM 34.8139 -93.1269 300° West 425 489 38,000  Level Memphis Center
06:24PM 34.8694 -93.2528 298° West 425 489 38,000  Level Memphis Center
06:25PM 34.9272 -93.3761 300° West 425 489 38,000  Level Memphis Center
06:26PM 34.9844 -93.5025 299° West 425 489 38,000  Level Memphis Center
06:27PM 35.0397 -93.6289 298° West 425 489 38,000  Level Memphis Center
06:28PM 35.0969 -93.7503 300° West 426 490 38,000  Level Memphis Center
06:29PM 35.1539 -93.8769 299° West 426 490 38,000  Level Memphis Center
06:30PM 35.2108 -94.0039 299° West 426 490 38,000  Level Memphis Center
06:31PM 35.2675 -94.1311 299° West 421 484 38,000  Level Memphis Center
06:32PM 35.3242 -94.2558 299° West 421 484 38,000  Level Memphis Center
06:33PM 35.3806 -94.3831 299° West 426 490 38,000  Level Memphis Center
06:34PM 35.4644 -94.5725 299° West 409 471 38,000  Level Kansas City Center
06:35PM 35.5194 -94.6961 299° West 409 471 38,000  Level Kansas City Center
06:36PM 35.5756 -94.8233 298° West 399 459 38,000  Level Fort Worth Center
06:37PM 35.6281 -94.9467 298° West 404 465 38,000  Level Fort Worth Center
06:38PM 35.6825 -95.0703 298° West 404 465 38,000  Level Fort Worth Center
06:39PM 35.7328 -95.1892 298° West 404 465 38,000  Level Fort Worth Center
06:40PM 35.7858 -95.3111 298° West 404 465 38,000  Level Kansas City Center
06:41PM 35.8397 -95.4358 298° West 409 471 38,000  Level Kansas City Center
06:42PM 35.8933 -95.5597 298° West 408 470 38,000  Level Kansas City Center
06:43PM 35.9450 -95.6839 297° West 405 466 38,000  Level Kansas City Center
06:44PM 35.9986 -95.8067 298° West 403 464 38,000  Level Kansas City Center
06:45PM 36.0506 -95.9308 297° West 403 464 38,000  Level Kansas City Center
06:46PM 36.1019 -96.0536 297° West 402 463 38,000  Level Kansas City Center
06:48PM 36.1653 -96.2006 298° West 400 460 38,000  Level Kansas City Center
06:49PM 36.2169 -96.3231 298° West 400 460 38,000  Level Kansas City Center
06:50PM 36.2681 -96.4458 297° West 399 459 38,000  Level Kansas City Center
06:51PM 36.3189 -96.5683 297° West 400 460 38,000  Level Kansas City Center
06:52PM 36.3708 -96.6922 298° West 401 461 38,000  Level Kansas City Center
06:53PM 36.4169 -96.8056 297° West 399 459 38,000  Level Kansas City Center
06:54PM 36.4672 -96.9275 297° West 398 458 38,000  Level Kansas City Center
06:55PM 36.5267 -97.0728 297° West 396 456 38,000  Level Kansas City Center
06:56PM 36.5764 -97.1939 297° West 395 455 38,000  Level Kansas City Center
06:57PM 36.6261 -97.3169 297° West 397 457 38,000  Level Kansas City Center
06:58PM 36.6764 -97.4442 296° West 397 457 38,000  Level Kansas City Center
06:59PM 36.7261 -97.5639 297° West 392 451 38,000  Level Kansas City Center
07:00PM 36.7747 -97.6864 296° West 392 451 38,000  Level Kansas City Center
07:01PM 36.8256 -97.8100 297° West 397 457 38,000  Level Kansas City Center
07:02PM 36.8750 -97.9344 296° West 399 459 38,000 360 Level Kansas City Center
07:03PM 36.9236 -98.0586 296° West 398 458 38,800 780 Climbing Kansas City Center
07:04PM 36.9733 -98.1819 297° West 397 457 39,700 540 Climbing Kansas City Center
07:05PM 37.0217 -98.3075 296° West 399 459 40,000 120 Climbing Kansas City Center
07:06PM 37.0817 -98.4603 296° West 405 466 40,000  Level Kansas City Center
07:07PM 37.1319 -98.5889 296° West 407 468 40,000  Level Kansas City Center
07:08PM 37.1811 -98.7169 296° West 407 468 40,000  Level Kansas City Center
07:09PM 37.2300 -98.8436 296° West 405 466 40,000  Level Kansas City Center
07:10PM 37.2792 -98.9697 296° West 403 464 40,000  Level Kansas City Center
07:11PM 37.3289 -99.0986 296° West 406 467 40,000  Level Kansas City Center
07:12PM 37.3767 -99.2261 295° West 404 465 40,000  Level Kansas City Center
07:13PM 37.4242 -99.3539 295° West 404 465 40,000  Level Kansas City Center
07:14PM 37.4819 -99.5044 296° West 402 463 40,000  Level Kansas City Center
07:15PM 37.5289 -99.6267 296° West 403 464 40,000  Level Kansas City Center
07:16PM 37.5753 -99.7511 295° West 409 471 40,000  Level Kansas City Center
07:17PM 37.6297 -99.8961 295° West 410 472 40,000  Level Kansas City Center
07:18PM 37.6753 -100.0186 295° West 406 467 40,000  Level Kansas City Center
07:19PM 37.7286 -100.1614 295° West 404 465 40,000  Level Kansas City Center
07:20PM 37.7733 -100.2839 295° West 403 464 40,000  Level Kansas City Center
07:21PM 37.8258 -100.4258 295° West 402 463 40,000  Level Kansas City Center
07:22PM 37.8711 -100.5481 295° West 402 463 40,000  Level Kansas City Center
07:23PM 37.9147 -100.6692 295° West 400 460 40,000  Level Kansas City Center
07:24PM 37.9667 -100.8106 295° West 400 460 40,000  Level Kansas City Center
07:25PM 37.9953 -100.8914 294° West 399 459 40,000  Level Denver Center
07:26PM 38.0394 -101.0144 295° West 403 464 40,000  Level Denver Center
07:27PM 38.0917 -101.1567 295° West 399 459 40,000  Level Denver Center
07:28PM 38.1358 -101.2814 294° West 405 466 40,000  Level Denver Center
07:29PM 38.1797 -101.4061 294° West 405 466 40,000 -180 Level Denver Center
07:30PM 38.2336 -101.5247 300° West 408 470 39,700 -720 Descending Denver Center
07:31PM 38.3022 -101.6608 303° West 407 468 38,600 -1,080 Descending Denver Center
07:32PM 38.3689 -101.7950 302° West 402 463 37,500 -1,020 Descending Denver Center
07:33PM 38.4247 -101.9075 302° West 395 455 36,600 -720 Descending Denver Center
07:34PM 38.4783 -102.0175 302° West 384 442 36,000 -660 Descending Denver Center
07:35PM 38.5517 -102.1661 302° West 389 448 35,200 -960 Descending Denver Center
07:36PM 38.6161 -102.2992 302° West 394 453 34,100 -600 Descending Denver Center
07:37PM 38.6714 -102.4122 302° West 391 450 34,000 -60 Descending Denver Center
07:38PM 38.7264 -102.5231 302° West 386 444 34,000  Level Denver Center
07:40PM 38.7883 -102.6533 301° West 383 441 34,000  Level Denver Center
07:41PM 38.8425 -102.7644 302° West 383 441 34,000  Level Denver Center
07:42PM 38.8986 -102.8817 302° West 384 442 34,000  Level Denver Center
07:43PM 38.9533 -102.9986 301° West 379 436 34,000 -960 Level Denver Center
07:44PM 39.0094 -103.1147 302° West 379 436 32,100 -2,400 Descending Denver Center
07:45PM 39.0739 -103.2506 301° West 378 435 29,200 -2,580 Descending Denver Center
07:46PM 39.1317 -103.3700 302° West 387 445 26,900 -2,280 Descending Denver Center
07:47PM 39.1892 -103.4919 301° West 392 451 24,600 -2,280 Descending Denver Center
07:48PM 39.2453 -103.6131 301° West 392 451 22,300 -2,220 Descending Denver Center
07:49PM 39.2994 -103.7269 302° West 375 432 20,100 -1,920 Descending Denver Center
07:50PM 39.3489 -103.8364 300° West 355 409 18,100 -1,500 Descending Denver Center
07:51PM 39.3972 -103.9692 295° West 331 381 16,800 -1,440 Descending Denver Center
07:52PM 39.4019 -104.0764 273° West 306 352 15,200 -1,560 Descending Denver Center
07:53PM 39.4075 -104.1789 274° West 295 339 13,700 -1,260 Descending Denver Center
07:54PM 39.4467 -104.2753 298° West 284 327 12,700 -1,140 Descending Denver Center
07:55PM 39.4931 -104.3633 304° West 294 338 11,400 -1,380 Descending Denver Center
07:56PM 39.5547 -104.4325 319° Northwest 292 336 9,900 -1,200 Descending Denver Center
07:57PM 39.6125 -104.5008 318° Northwest 278 320 9,000 -540 Descending Denver Center
07:58PM 39.6669 -104.5647 318° Northwest 244 281 8,800 -900 Descending Denver Center
07:59PM 39.7144 -104.6206 318° Northwest 218 251 7,200 -1,020 Descending Denver Center
08:00PM 39.7544 -104.6617 322° Northwest 175 201 6,800 -600 Descending Denver Center
08:01PM 39.8019 -104.6611 North 156 180 6,000 -780 Descending Denver Center
08:02PM 39.8403 -104.6619 359° North 150 173 5,300 -720 Descending Denver Center
08:04PM 39.8500 -104.6667 North  Level FlightAware Approximate
08:11PM 39.8617 -104.6732 North  Level Estimated
08:12PM 39.8617 -104.6732 North  Level Estimated
08:13PM 39.8617 -104.6732 North  Level Estimated